createdAt,value
2022-09-28T00:01:19.626Z,83.51
2022-09-28T00:03:49.183Z,83.71
2022-09-28T00:06:19.808Z,83.80
2022-09-28T00:08:50.234Z,83.78
2022-09-28T00:11:20.861Z,83.49
2022-09-28T00:13:56.722Z,83.44
2022-09-28T00:16:31.581Z,83.90
2022-09-28T00:19:00.281Z,83.75
2022-09-28T00:21:33.456Z,83.60
2022-09-28T00:24:15.275Z,83.50
2022-09-28T00:26:52.055Z,83.79
2022-09-28T00:29:34.771Z,83.97
2022-09-28T00:32:05.901Z,83.69
2022-09-28T00:34:36.740Z,83.81
2022-09-28T00:37:06.529Z,83.92
2022-09-28T00:39:35.894Z,84.33
2022-09-28T00:42:11.139Z,84.39
2022-09-28T00:44:51.798Z,84.86
2022-09-28T00:47:34.890Z,84.69
2022-09-28T00:50:19.753Z,84.36
2022-09-28T00:53:04.820Z,84.07
2022-09-28T00:55:45.998Z,84.47
2022-09-28T00:58:20.749Z,84.20
2022-09-28T01:00:49.522Z,84.86
2022-09-28T01:03:17.752Z,84.71
2022-09-28T01:05:47.165Z,85.25
2022-09-28T01:08:17.590Z,85.16
2022-09-28T01:10:45.491Z,85.04
2022-09-28T01:13:15.405Z,85.33
2022-09-28T01:16:12.017Z,84.99
2022-09-28T01:18:46.742Z,84.57
2022-09-28T01:21:22.347Z,84.66
2022-09-28T01:24:21.765Z,84.51
2022-09-28T01:27:26.806Z,84.43
2022-09-28T01:30:06.182Z,84.06
2022-09-28T01:32:55.877Z,84.63
2022-09-28T01:35:32.285Z,84.89
2022-09-28T01:38:28.823Z,85.31
2022-09-28T01:41:00.517Z,85.38
2022-09-28T01:43:31.464Z,85.28
2022-09-28T01:46:13.898Z,85.63
2022-09-28T01:49:13.229Z,85.78
2022-09-28T01:51:46.675Z,86.00
2022-09-28T01:54:21.037Z,85.90
2022-09-28T01:57:05.088Z,86.14
2022-09-28T01:59:37.313Z,86.01
2022-09-28T02:02:11.292Z,85.80
2022-09-28T02:04:52.508Z,86.00
2022-09-28T02:07:32.455Z,86.05
2022-09-28T02:10:07.085Z,85.84
2022-09-28T02:12:44.220Z,85.78
2022-09-28T02:15:20.747Z,85.92
2022-09-28T02:17:49.429Z,85.67
2022-09-28T02:20:18.247Z,85.79
2022-09-28T02:22:55.923Z,85.69
2022-09-28T02:25:35.770Z,85.37
2022-09-28T02:28:08.405Z,85.88
2022-09-28T02:30:38.951Z,86.26
2022-09-28T02:33:31.455Z,86.57
2022-09-28T02:36:01.104Z,86.19
2022-09-28T02:38:32.035Z,86.06
2022-09-28T02:41:08.677Z,85.59
2022-09-28T02:44:08.043Z,85.26
2022-09-28T02:46:55.809Z,85.55
2022-09-28T02:49:38.872Z,86.52
2022-09-28T02:52:37.602Z,86.54
2022-09-28T02:55:36.220Z,86.62
2022-09-28T02:58:26.262Z,86.50
2022-09-28T03:01:07.501Z,86.42
2022-09-28T03:04:02.002Z,85.91
2022-09-28T03:06:45.969Z,86.05
2022-09-28T03:09:22.692Z,85.60
2022-09-28T03:11:59.692Z,85.37
2022-09-28T03:14:27.460Z,85.13
2022-09-28T03:16:57.874Z,85.30
2022-09-28T03:19:32.702Z,85.77
2022-09-28T03:22:01.864Z,86.17
2022-09-28T03:24:29.573Z,86.97
2022-09-28T03:26:58.251Z,86.24
2022-09-28T03:29:26.681Z,85.75
2022-09-28T03:32:00.246Z,85.17
2022-09-28T03:34:27.779Z,84.83
2022-09-28T03:36:56.155Z,84.79
2022-09-28T03:39:23.811Z,84.87
2022-09-28T03:41:51.367Z,85.33
2022-09-28T03:44:20.931Z,85.00
2022-09-28T03:46:49.303Z,85.13
2022-09-28T03:49:17.026Z,84.93
2022-09-28T03:51:44.787Z,84.40
2022-09-28T03:54:13.231Z,84.39
2022-09-28T03:56:41.553Z,84.68
2022-09-28T03:59:09.138Z,84.76
2022-09-28T04:01:38.070Z,84.94
2022-09-28T04:04:06.003Z,85.10
2022-09-28T04:06:33.645Z,85.44
2022-09-28T04:09:01.331Z,85.08
2022-09-28T04:11:47.492Z,85.20
2022-09-28T04:14:18.644Z,85.75
2022-09-28T04:16:48.078Z,85.86
2022-09-28T04:19:16.965Z,85.78
2022-09-28T04:21:48.512Z,86.09
2022-09-28T04:24:16.185Z,85.89
2022-09-28T04:26:44.199Z,85.56
2022-09-28T04:29:16.313Z,84.94
2022-09-28T04:32:06.064Z,84.81
2022-09-28T04:34:39.672Z,84.53
2022-09-28T04:37:09.759Z,85.14
2022-09-28T04:39:42.276Z,85.28
2022-09-28T04:42:13.231Z,85.03
2022-09-28T04:44:40.821Z,85.09
2022-09-28T04:47:10.849Z,84.42
2022-09-28T04:49:53.254Z,84.61
2022-09-28T04:52:27.435Z,84.49
2022-09-28T04:54:54.977Z,84.08
2022-09-28T04:57:25.135Z,84.62
2022-09-28T04:59:52.821Z,84.64
2022-09-28T05:02:20.468Z,84.69
2022-09-28T05:05:07.486Z,84.20
2022-09-28T05:07:46.416Z,84.34
2022-09-28T05:10:14.215Z,84.83
2022-09-28T05:12:42.203Z,84.84
2022-09-28T05:15:11.773Z,85.21
2022-09-28T05:17:39.560Z,85.65
2022-09-28T05:20:11.820Z,85.88
2022-09-28T05:22:42.267Z,85.46
2022-09-28T05:25:10.634Z,85.04
2022-09-28T05:28:07.912Z,84.70
2022-09-28T05:30:50.786Z,84.22
2022-09-28T05:33:41.463Z,83.94
2022-09-28T05:36:13.692Z,83.68
2022-09-28T05:38:43.347Z,83.70
2022-09-28T05:41:11.001Z,83.32
2022-09-28T05:43:40.117Z,84.04
2022-09-28T05:46:08.304Z,84.65
2022-09-28T05:48:39.620Z,84.32
2022-09-28T05:51:07.929Z,84.21
2022-09-28T05:53:36.150Z,84.49
2022-09-28T05:56:03.736Z,84.50
2022-09-28T05:58:34.745Z,84.71
2022-09-28T06:01:02.752Z,84.56
2022-09-28T06:03:31.390Z,84.26
2022-09-28T06:06:02.645Z,84.02
2022-09-28T06:08:34.932Z,83.49
2022-09-28T06:11:27.015Z,83.54
2022-09-28T06:13:57.723Z,82.93
2022-09-28T06:16:28.851Z,82.77
2022-09-28T06:18:56.759Z,83.03
2022-09-28T06:21:42.880Z,83.03
2022-09-28T06:24:10.684Z,82.85
2022-09-28T06:26:38.653Z,83.05
2022-09-28T06:29:07.959Z,82.62
2022-09-28T06:31:36.087Z,82.21
2022-09-28T06:34:03.685Z,82.10
2022-09-28T06:36:31.474Z,81.93
2022-09-28T06:38:59.481Z,82.33
2022-09-28T06:41:27.815Z,82.67
2022-09-28T06:44:02.172Z,82.77
2022-09-28T06:46:48.227Z,83.63
2022-09-28T06:49:46.215Z,83.16
2022-09-28T06:52:34.456Z,82.43
2022-09-28T06:55:30.646Z,82.93
2022-09-28T06:58:04.987Z,82.86
2022-09-28T07:00:37.665Z,83.31
2022-09-28T07:03:08.348Z,82.47
2022-09-28T07:05:59.442Z,82.37
2022-09-28T07:08:40.146Z,81.55
2022-09-28T07:11:27.584Z,81.37
2022-09-28T07:14:24.564Z,81.25
2022-09-28T07:17:12.424Z,81.07
2022-09-28T07:19:41.573Z,81.63
2022-09-28T07:22:18.398Z,80.86
2022-09-28T07:24:48.988Z,81.85
2022-09-28T07:27:37.353Z,81.26
2022-09-28T07:30:37.871Z,81.53
2022-09-28T07:33:17.331Z,81.09
2022-09-28T07:35:56.742Z,79.72
2022-09-28T07:38:28.638Z,79.56
2022-09-28T07:41:14.003Z,78.67
2022-09-28T07:43:46.799Z,79.26
2022-09-28T07:46:14.938Z,79.49
2022-09-28T07:48:51.808Z,78.71
2022-09-28T07:51:35.153Z,78.55
2022-09-28T07:54:23.770Z,77.08
2022-09-28T07:57:10.119Z,75.73
2022-09-28T08:00:02.657Z,72.96
2022-09-28T08:02:44.003Z,71.80
2022-09-28T08:05:18.899Z,68.23
2022-09-28T08:07:46.512Z,63.74
2022-09-28T08:10:14.757Z,61.59
2022-09-28T08:12:48.445Z,62.94
2022-09-28T08:15:39.162Z,66.73
2022-09-28T08:18:20.753Z,69.26
2022-09-28T08:21:10.472Z,68.76
2022-09-28T08:23:39.094Z,63.58
2022-09-28T08:26:12.098Z,64.63
2022-09-28T08:28:43.569Z,68.33
2022-09-28T08:31:31.225Z,65.84
2022-09-28T08:34:22.753Z,66.75
2022-09-28T08:37:09.482Z,65.51
2022-09-28T08:39:56.032Z,66.17
2022-09-28T08:42:43.458Z,67.80
2022-09-28T08:45:20.102Z,72.22
2022-09-28T08:48:52.267Z,73.11
2022-09-28T08:51:57.379Z,72.86
2022-09-28T08:54:59.167Z,73.51
2022-09-28T08:58:01.276Z,74.24
2022-09-28T09:00:51.731Z,73.98
2022-09-28T09:03:36.133Z,73.17
2022-09-28T09:06:34.637Z,72.24
2022-09-28T09:09:45.480Z,69.72
2022-09-28T09:12:39.356Z,64.48
2022-09-28T09:15:40.414Z,59.95
2022-09-28T09:18:37.300Z,60.13
2022-09-28T09:21:43.102Z,56.90
2022-09-28T09:24:21.617Z,53.61
2022-09-28T09:27:05.173Z,52.33
2022-09-28T09:29:55.081Z,52.44
2022-09-28T09:32:46.254Z,53.47
2022-09-28T09:35:23.119Z,56.34
2022-09-28T09:38:49.195Z,50.90
2022-09-28T09:42:00.426Z,51.13
2022-09-28T09:45:14.413Z,52.12
2022-09-28T09:48:36.132Z,52.53
2022-09-28T09:51:45.561Z,55.58
2022-09-28T09:54:39.342Z,56.52
2022-09-28T09:57:34.191Z,56.10
2022-09-28T10:00:17.466Z,57.93
2022-09-28T10:03:05.070Z,59.09
2022-09-28T10:05:40.718Z,60.55
2022-09-28T10:08:09.523Z,59.18
2022-09-28T10:10:49.630Z,60.13
2022-09-28T10:13:19.806Z,59.62
2022-09-28T10:15:49.018Z,57.28
2022-09-28T10:18:30.890Z,54.73
2022-09-28T10:21:21.678Z,54.65
2022-09-28T10:24:02.841Z,55.80
2022-09-28T10:26:41.703Z,54.57
2022-09-28T10:29:26.415Z,53.10
2022-09-28T10:31:55.679Z,51.49
2022-09-28T10:34:31.061Z,49.62
2022-09-28T10:37:11.894Z,54.16
2022-09-28T10:40:30.516Z,47.79
2022-09-28T10:43:21.585Z,45.85
2022-09-28T10:46:06.811Z,45.19
2022-09-28T10:48:51.112Z,50.08
2022-09-28T10:51:20.749Z,53.37
2022-09-28T10:54:02.286Z,55.97
2022-09-28T10:56:52.347Z,57.47
2022-09-28T10:59:31.050Z,57.49
2022-09-28T11:02:36.143Z,54.82
2022-09-28T11:05:22.310Z,51.25
2022-09-28T11:07:52.748Z,54.60
2022-09-28T11:10:31.604Z,58.61
2022-09-28T11:13:10.685Z,57.10
2022-09-28T11:15:44.480Z,58.41
2022-09-28T11:18:31.640Z,57.60
2022-09-28T11:21:16.729Z,54.18
2022-09-28T11:24:08.035Z,53.67
2022-09-28T11:26:44.387Z,56.02
2022-09-28T11:29:24.878Z,58.58
2022-09-28T11:32:15.878Z,58.67
2022-09-28T11:35:03.171Z,60.03
2022-09-28T11:37:44.749Z,59.15
2022-09-28T11:40:23.209Z,59.86
2022-09-28T11:43:12.262Z,59.48
2022-09-28T11:45:50.641Z,60.31
2022-09-28T11:48:55.260Z,60.01
2022-09-28T11:51:30.616Z,57.20
2022-09-28T11:54:21.092Z,57.07
2022-09-28T11:56:51.644Z,57.25
2022-09-28T11:59:27.691Z,57.86
2022-09-28T12:02:29.766Z,56.62
2022-09-28T12:05:20.913Z,58.91
2022-09-28T12:07:56.490Z,58.70
2022-09-28T12:11:26.629Z,59.89
2022-09-28T12:14:20.809Z,59.46
2022-09-28T12:17:08.481Z,58.53
2022-09-28T12:19:58.099Z,59.46
2022-09-28T12:22:34.837Z,59.83
2022-09-28T12:25:10.279Z,60.62
2022-09-28T12:27:51.448Z,58.37
2022-09-28T12:30:26.990Z,60.36
2022-09-28T12:33:07.075Z,59.87
2022-09-28T12:35:53.069Z,60.59
2022-09-28T12:38:38.992Z,61.36
2022-09-28T12:41:34.932Z,60.18
2022-09-28T12:44:05.959Z,59.21
2022-09-28T12:47:13.198Z,60.97
2022-09-28T12:53:32.796Z,60.71
2022-09-28T12:56:21.694Z,62.10
2022-09-28T12:58:50.342Z,61.82
2022-09-28T13:01:40.000Z,60.99
2022-09-28T13:04:22.693Z,61.53
2022-09-28T13:07:30.735Z,60.27
2022-09-28T13:10:20.408Z,59.57
2022-09-28T13:13:00.942Z,59.40
2022-09-28T13:15:37.619Z,59.73
2022-09-28T13:18:22.019Z,60.56
2022-09-28T13:20:49.757Z,59.59
2022-09-28T13:23:29.753Z,59.47
2022-09-28T13:26:11.015Z,59.68
2022-09-28T13:28:42.302Z,58.57
2022-09-28T13:31:13.151Z,58.80
2022-09-28T13:33:44.388Z,58.28
2022-09-28T13:36:33.213Z,59.76
2022-09-28T13:39:01.667Z,59.50
2022-09-28T13:41:36.246Z,59.52
2022-09-28T13:44:35.135Z,61.65
2022-09-28T13:47:11.683Z,61.83
2022-09-28T13:50:03.311Z,62.97
2022-09-28T13:52:56.955Z,63.52
2022-09-28T13:55:49.185Z,63.81
2022-09-28T13:58:26.397Z,64.73
2022-09-28T14:01:11.655Z,63.52
2022-09-28T14:04:13.565Z,63.55
2022-09-28T14:07:08.413Z,64.43
2022-09-28T14:09:48.696Z,65.02
2022-09-28T14:12:53.016Z,64.44
2022-09-28T14:15:40.067Z,63.21
2022-09-28T14:18:21.550Z,64.03
2022-09-28T14:21:17.542Z,63.41
2022-09-28T14:24:06.638Z,65.01
2022-09-28T14:26:46.734Z,65.37
2022-09-28T14:29:28.780Z,63.71
2022-09-28T14:32:08.177Z,63.88
2022-09-28T14:34:42.074Z,62.78
2022-09-28T14:37:48.966Z,61.99
2022-09-28T14:40:50.041Z,62.21
2022-09-28T14:43:25.054Z,63.15
2022-09-28T14:46:15.804Z,68.06
2022-09-28T14:48:51.106Z,71.74
2022-09-28T14:51:30.311Z,73.42
2022-09-28T14:54:13.033Z,74.76
2022-09-28T14:57:08.213Z,75.36
2022-09-28T14:59:43.568Z,74.96
2022-09-28T15:02:23.339Z,75.60
2022-09-28T15:05:13.288Z,76.17
2022-09-28T15:07:50.750Z,75.83
2022-09-28T15:10:49.967Z,75.04
2022-09-28T15:13:30.091Z,74.61
2022-09-28T15:16:09.980Z,74.60
2022-09-28T15:19:05.011Z,73.80
2022-09-28T15:21:39.174Z,74.59
2022-09-28T15:24:33.658Z,73.49
2022-09-28T15:27:11.458Z,73.21
2022-09-28T15:29:41.069Z,72.71
2022-09-28T15:32:25.849Z,73.02
2022-09-28T15:34:56.872Z,72.68
2022-09-28T15:37:26.494Z,73.02
2022-09-28T15:39:57.475Z,72.65
2022-09-28T15:42:26.472Z,72.66
2022-09-28T15:45:14.093Z,72.20
2022-09-28T15:47:44.890Z,73.24
2022-09-28T15:50:30.212Z,72.72
2022-09-28T15:53:04.830Z,74.36
2022-09-28T15:55:44.741Z,72.84
2022-09-28T15:58:19.405Z,74.64
2022-09-28T16:00:50.142Z,73.36
2022-09-28T16:03:17.628Z,73.98
2022-09-28T16:06:00.500Z,75.89
2022-09-28T16:08:42.719Z,75.12
2022-09-28T16:11:16.459Z,75.50
2022-09-28T16:13:56.489Z,75.00
2022-09-28T16:16:30.826Z,75.19
2022-09-28T16:19:01.401Z,75.23
2022-09-28T16:21:45.549Z,75.06
2022-09-28T16:24:23.259Z,76.50
2022-09-28T16:26:58.881Z,76.50
2022-09-28T16:29:39.835Z,75.97
2022-09-28T16:32:26.350Z,76.28
2022-09-28T16:35:18.830Z,76.67
2022-09-28T16:37:48.762Z,76.49
2022-09-28T16:40:16.585Z,76.41
2022-09-28T16:42:49.034Z,76.63
2022-09-28T16:45:23.797Z,75.89
2022-09-28T16:47:57.926Z,75.37
2022-09-28T16:50:26.502Z,75.67
2022-09-28T16:53:19.865Z,76.20
2022-09-28T16:55:50.035Z,75.50
2022-09-28T16:58:18.621Z,75.43
2022-09-28T17:00:46.182Z,74.43
2022-09-28T17:03:18.394Z,74.70
2022-09-28T17:05:48.268Z,73.84
2022-09-28T17:08:18.781Z,74.38
2022-09-28T17:11:17.725Z,73.52
2022-09-28T17:13:47.467Z,73.70
2022-09-28T17:19:25.057Z,73.68
2022-09-28T17:21:54.211Z,72.48
2022-09-28T17:24:22.014Z,71.93
2022-09-28T17:26:51.709Z,71.48
2022-09-28T17:29:20.174Z,72.08
2022-09-28T17:31:48.343Z,72.39
2022-09-28T17:34:16.732Z,72.91
2022-09-28T17:36:45.298Z,73.05
2022-09-28T17:39:18.618Z,72.96
2022-09-28T17:41:46.894Z,72.35
2022-09-28T17:44:16.243Z,72.34
2022-09-28T17:46:48.582Z,72.22
2022-09-28T17:49:17.277Z,71.73
2022-09-28T17:51:44.989Z,71.98
2022-09-28T17:54:19.894Z,71.30
2022-09-28T17:56:47.862Z,70.35
2022-09-28T17:59:18.907Z,69.77
2022-09-28T18:01:48.399Z,70.37
2022-09-28T18:04:39.798Z,70.79
2022-09-28T18:07:04.931Z,71.35
2022-09-28T18:09:32.486Z,71.34
2022-09-28T18:12:03.934Z,71.83
2022-09-28T18:14:31.783Z,72.57
2022-09-28T18:16:59.314Z,72.92
2022-09-28T18:19:31.175Z,73.50
2022-09-28T18:21:59.957Z,73.74
2022-09-28T18:24:27.585Z,74.09
2022-09-28T18:26:55.196Z,75.80
2022-09-28T18:29:22.808Z,76.92
2022-09-28T18:31:50.589Z,76.75
2022-09-28T18:34:18.303Z,76.72
2022-09-28T18:36:46.532Z,77.26
2022-09-28T18:39:14.132Z,76.63
2022-09-28T18:41:42.817Z,76.95
2022-09-28T18:44:10.838Z,76.97
2022-09-28T18:46:38.536Z,77.31
2022-09-28T18:49:06.554Z,77.26
2022-09-28T18:51:34.847Z,76.31
2022-09-28T18:54:07.219Z,76.00
2022-09-28T18:56:38.782Z,76.47
2022-09-28T18:59:12.351Z,76.70
2022-09-28T19:01:42.083Z,76.49
2022-09-28T19:04:11.321Z,76.41
2022-09-28T19:06:42.910Z,76.37
2022-09-28T19:09:11.201Z,76.64
2022-09-28T19:11:38.857Z,76.43
2022-09-28T19:14:17.084Z,76.71
2022-09-28T19:16:46.073Z,76.44
2022-09-28T19:19:18.630Z,76.03
2022-09-28T19:21:47.701Z,76.23
2022-09-28T19:24:18.623Z,76.25
2022-09-28T19:26:47.065Z,76.13
2022-09-28T19:29:15.851Z,75.67
2022-09-28T19:32:06.978Z,75.68
2022-09-28T19:34:34.801Z,75.52
2022-09-28T19:37:03.939Z,76.41
2022-09-28T19:39:33.003Z,76.86
2022-09-28T19:42:01.234Z,76.78
2022-09-28T19:44:31.250Z,78.68
2022-09-28T19:47:04.879Z,78.07
2022-09-28T19:49:33.108Z,77.88
2022-09-28T19:52:16.948Z,78.00
2022-09-28T19:54:57.966Z,77.37
2022-09-28T19:57:30.773Z,76.89
2022-09-28T20:00:03.258Z,76.75
2022-09-28T20:02:34.927Z,76.12
2022-09-28T20:05:03.136Z,75.57
2022-09-28T20:07:33.197Z,75.44
2022-09-28T20:10:01.167Z,75.57
2022-09-28T20:12:28.921Z,75.67
2022-09-28T20:14:56.458Z,75.59
2022-09-28T20:17:26.552Z,75.50
2022-09-28T20:19:54.179Z,75.09
2022-09-28T20:22:21.735Z,75.07
2022-09-28T20:24:49.336Z,74.70
2022-09-28T20:27:16.898Z,75.15
2022-09-28T20:29:44.464Z,75.36
2022-09-28T20:32:12.206Z,75.46
2022-09-28T20:34:39.816Z,75.08
2022-09-28T20:37:07.566Z,75.35
2022-09-28T20:39:42.755Z,75.73
2022-09-28T20:42:12.810Z,75.78
2022-09-28T20:44:40.403Z,75.92
2022-09-28T20:47:08.171Z,75.97
2022-09-28T20:49:36.557Z,76.07
2022-09-28T20:52:04.058Z,76.06
2022-09-28T20:54:32.644Z,76.37
2022-09-28T20:57:01.544Z,76.81
2022-09-28T20:59:29.106Z,77.06
2022-09-28T21:01:56.911Z,77.33
2022-09-28T21:04:25.115Z,77.38
2022-09-28T21:06:53.206Z,77.50
2022-09-28T21:09:20.730Z,77.34
2022-09-28T21:11:48.641Z,77.14
2022-09-28T21:14:16.192Z,77.36
2022-09-28T21:16:43.774Z,77.02
2022-09-28T21:19:11.409Z,76.85
2022-09-28T21:21:39.221Z,77.28
2022-09-28T21:24:09.867Z,77.44
2022-09-28T21:26:37.998Z,77.58
2022-09-28T21:29:11.113Z,77.14
2022-09-28T21:31:47.584Z,76.78
2022-09-28T21:34:20.032Z,76.83
2022-09-28T21:36:52.578Z,76.99
2022-09-28T21:39:20.666Z,76.69
2022-09-28T21:41:48.280Z,76.76
2022-09-28T21:44:16.199Z,76.80
2022-09-28T21:46:43.850Z,77.12
2022-09-28T21:49:12.592Z,77.48
2022-09-28T21:51:40.291Z,77.65
2022-09-28T21:54:08.184Z,77.80
2022-09-28T21:56:36.255Z,77.79
2022-09-28T21:59:03.848Z,77.74
2022-09-28T22:01:31.797Z,77.55
2022-09-28T22:04:00.114Z,77.51
2022-09-28T22:06:28.349Z,77.50
2022-09-28T22:08:56.707Z,77.29
2022-09-28T22:11:27.025Z,77.25
2022-09-28T22:13:59.531Z,77.39
2022-09-28T22:16:30.050Z,77.55
2022-09-28T22:18:58.526Z,77.78
2022-09-28T22:21:32.777Z,77.76
2022-09-28T22:24:02.259Z,77.70
2022-09-28T22:26:31.796Z,77.83
2022-09-28T22:29:02.590Z,77.69
2022-09-28T22:31:33.012Z,77.56
2022-09-28T22:34:01.527Z,77.73
2022-09-28T22:36:29.879Z,77.69
2022-09-28T22:38:58.578Z,77.53
2022-09-28T22:41:26.766Z,77.55
2022-09-28T22:43:55.729Z,77.78
2022-09-28T22:46:29.443Z,77.67
2022-09-28T22:48:59.669Z,77.65
2022-09-28T22:51:29.625Z,77.76
2022-09-28T22:53:57.585Z,77.64
2022-09-28T22:56:26.772Z,77.69
2022-09-28T22:58:54.914Z,77.49
2022-09-28T23:01:29.204Z,77.48
2022-09-28T23:03:57.964Z,77.35
2022-09-28T23:06:29.028Z,77.41
2022-09-28T23:08:57.147Z,77.34
2022-09-28T23:11:28.564Z,77.08
2022-09-28T23:14:00.500Z,77.55
2022-09-28T23:16:28.402Z,77.40
2022-09-28T23:18:57.136Z,77.59
2022-09-28T23:21:27.741Z,77.78
2022-09-28T23:23:58.393Z,77.68
2022-09-28T23:26:30.205Z,77.56
2022-09-28T23:28:59.493Z,77.41
2022-09-28T23:31:30.143Z,77.64
2022-09-28T23:34:03.521Z,77.58
2022-09-28T23:36:31.875Z,77.36
2022-09-28T23:39:00.116Z,77.36
2022-09-28T23:41:28.270Z,77.14
2022-09-28T23:43:55.831Z,77.05
2022-09-28T23:46:23.508Z,76.81
2022-09-28T23:48:51.676Z,76.73
2022-09-28T23:51:19.339Z,76.69
2022-09-28T23:53:47.412Z,76.73
2022-09-28T23:56:15.087Z,76.51
2022-09-28T23:58:42.942Z,76.99
